Time;durP1;ratioP1;P1;durP2;ratioP2;P2;SDS_P1;SDS_P2;PMS_P1;PMS_P2;Temp;Humidity;BMP_temperature;BMP_pressure;BME280_temperature;BME280_humidity;BME280_pressure;Samples;Min_cycle;Max_cycle;Signal;HPM_P1;HPM_P2
2021/09/02 04:00:48;;;;;;;162.87;6.37;;;8.00;96.30;;;;;;5784814;23;20932;-80
2021/09/02 04:03:13;;;;;;;164.10;7.53;;;8.00;96.30;;;;;;4986592;28;20464;-79
2021/09/02 04:05:39;;;;;;;86.83;5.93;;;8.10;96.30;;;;;;4997651;28;20187;-79
2021/09/02 04:08:04;;;;;;;38.37;6.30;;;8.20;96.30;;;;;;5015542;28;20177;-79
2021/09/02 04:10:30;;;;;;;99.77;6.63;;;8.20;96.30;;;;;;4998107;28;20223;-79
2021/09/02 04:12:55;;;;;;;167.07;8.47;;;8.30;96.30;;;;;;5014904;28;20181;-79
2021/09/02 04:15:21;;;;;;;37.60;5.80;;;8.40;96.30;;;;;;4997606;28;20644;-80
2021/09/02 04:17:46;;;;;;;8.07;5.40;;;8.40;96.30;;;;;;5003180;28;20173;-80
2021/09/02 04:20:12;;;;;;;13.73;5.50;;;8.40;96.30;;;;;;5016510;28;20193;-80
2021/09/02 04:22:37;;;;;;;12.40;6.43;;;8.50;96.30;;;;;;4997098;28;20177;-79
2021/09/02 04:25:03;;;;;;;9.50;6.40;;;8.60;96.30;;;;;;5015124;28;20227;-80
2021/09/02 04:27:30;;;;;;;9.90;6.70;;;8.60;96.30;;;;;;4997189;28;20177;-80
2021/09/02 04:29:55;;;;;;;78.47;7.10;;;8.60;96.30;;;;;;4997643;28;20235;-81
2021/09/02 04:32:20;;;;;;;32.40;6.27;;;8.70;96.30;;;;;;4983039;28;20841;-79
2021/09/02 04:34:46;;;;;;;96.90;8.43;;;8.80;96.30;;;;;;4977353;28;20218;-78
2021/09/02 04:37:12;;;;;;;83.47;7.50;;;8.80;96.30;;;;;;4995236;28;20236;-78
2021/09/02 04:39:37;;;;;;;15.70;6.40;;;8.90;96.30;;;;;;4978041;28;20182;-80
2021/09/02 04:42:03;;;;;;;9.03;6.10;;;9.00;96.30;;;;;;4977377;28;20210;-79
2021/09/02 04:44:28;;;;;;;9.27;6.30;;;9.00;96.30;;;;;;4958326;28;20182;-79
2021/09/02 04:46:54;;;;;;;9.77;8.00;;;9.20;96.30;;;;;;4958497;28;20536;-79
2021/09/02 04:49:20;;;;;;;10.67;6.30;;;9.20;96.30;;;;;;4958715;28;20178;-80
2021/09/02 04:51:45;;;;;;;10.40;6.80;;;9.30;96.30;;;;;;4957984;28;20693;-76
2021/09/02 04:54:11;;;;;;;7.23;6.07;;;9.30;96.30;;;;;;4975041;28;20178;-76
2021/09/02 04:56:36;;;;;;;7.50;6.80;;;9.40;96.30;;;;;;4975066;28;20174;-76
2021/09/02 04:59:02;;;;;;;11.30;7.37;;;9.50;96.30;;;;;;4975046;28;20690;-77
2021/09/02 05:01:27;;;;;;;10.10;7.33;;;9.60;96.30;;;;;;4975149;28;20221;-76
2021/09/02 05:03:53;;;;;;;9.00;7.33;;;9.60;96.30;;;;;;4961842;28;20657;-75
2021/09/02 05:06:18;;;;;;;8.53;6.93;;;9.70;96.30;;;;;;4978790;28;20264;-76
2021/09/02 05:08:43;;;;;;;17.33;8.27;;;9.80;96.30;;;;;;4995428;28;20177;-76
2021/09/02 05:11:09;;;;;;;19.27;10.83;;;9.90;96.30;;;;;;4993915;28;20209;-77
2021/09/02 05:13:34;;;;;;;13.50;10.57;;;9.90;96.30;;;;;;4974970;28;20186;-77
2021/09/02 05:16:00;;;;;;;11.93;7.70;;;10.00;96.30;;;;;;4993772;28;20178;-76
2021/09/02 05:18:25;;;;;;;13.90;8.03;;;10.10;96.30;;;;;;4993591;28;20177;-78
2021/09/02 05:20:52;;;;;;;14.93;8.03;;;10.20;96.30;;;;;;4961299;28;20241;-78
2021/09/02 05:23:18;;;;;;;27.23;9.00;;;10.20;96.30;;;;;;4957687;28;20174;-78
2021/09/02 05:25:44;;;;;;;31.47;9.77;;;10.30;96.30;;;;;;4957942;28;20418;-79
2021/09/02 05:28:09;;;;;;;35.00;9.30;;;10.40;96.30;;;;;;4976012;28;20442;-77
2021/09/02 05:30:35;;;;;;;35.77;9.27;;;10.40;96.30;;;;;;4975469;28;20560;-79
2021/09/02 05:33:01;;;;;;;34.90;10.70;;;10.50;96.30;;;;;;4975331;28;20253;-79
2021/09/02 05:35:26;;;;;;;50.33;10.77;;;10.60;96.30;;;;;;4975752;28;20182;-79
2021/09/02 05:37:52;;;;;;;70.23;11.53;;;10.60;96.30;;;;;;4981079;28;20178;-77
2021/09/02 05:40:18;;;;;;;52.67;10.83;;;10.70;96.30;;;;;;4985927;28;20202;-79
2021/09/02 05:42:43;;;;;;;37.93;11.50;;;10.80;96.30;;;;;;4977127;28;20170;-79
2021/09/02 05:45:09;;;;;;;43.23;11.90;;;10.90;96.30;;;;;;4964789;28;20447;-78
2021/09/02 05:47:35;;;;;;;36.30;12.10;;;11.10;96.30;;;;;;4993864;28;20301;-77
2021/09/02 05:50:02;;;;;;;50.27;12.73;;;11.10;96.30;;;;;;4994159;28;20182;-78
2021/09/02 05:52:28;;;;;;;63.87;13.77;;;11.20;96.30;;;;;;4993100;28;20236;-79
2021/09/02 05:54:54;;;;;;;44.50;13.63;;;11.30;96.30;;;;;;4971314;28;20449;-77
2021/09/02 05:57:23;;;;;;;103.77;21.53;;;11.30;96.30;;;;;;4974217;28;20664;-80
2021/09/02 05:59:49;;;;;;;103.90;25.70;;;11.50;96.30;;;;;;4956735;28;20430;-79
2021/09/02 06:02:15;;;;;;;111.43;23.90;;;11.90;96.30;;;;;;4974881;28;20453;-78
2021/09/02 06:04:40;;;;;;;81.73;16.33;;;12.10;96.30;;;;;;4975034;28;20441;-79
2021/09/02 06:07:06;;;;;;;50.17;17.17;;;12.10;96.30;;;;;;4958648;28;20177;-77
2021/09/02 06:09:31;;;;;;;87.50;15.40;;;12.10;96.30;;;;;;4973656;28;20178;-77
2021/09/02 06:11:57;;;;;;;112.13;17.40;;;12.10;96.30;;;;;;4973233;28;20226;-78
2021/09/02 06:14:22;;;;;;;130.83;17.43;;;12.10;96.30;;;;;;4974083;28;20203;-79
2021/09/02 06:16:48;;;;;;;42.60;19.23;;;12.10;96.30;;;;;;4976114;28;20189;-78
2021/09/02 06:19:13;;;;;;;51.50;22.10;;;12.10;96.30;;;;;;4974353;28;20289;-77
2021/09/02 06:21:39;;;;;;;44.87;20.23;;;12.30;96.30;;;;;;4957014;28;20214;-76
2021/09/02 06:24:04;;;;;;;46.37;18.90;;;12.40;96.30;;;;;;4961896;28;20174;-76
2021/09/02 06:26:30;;;;;;;42.07;22.63;;;12.70;96.30;;;;;;4978939;28;20170;-76
2021/09/02 06:28:55;;;;;;;42.60;21.97;;;12.90;96.30;;;;;;4978399;28;20193;-77
2021/09/02 06:31:21;;;;;;;41.37;23.00;;;12.90;96.30;;;;;;4977905;28;20717;-77
2021/09/02 06:33:46;;;;;;;46.40;24.53;;;13.10;96.30;;;;;;4977546;28;20180;-76
2021/09/02 06:36:12;;;;;;;45.63;22.77;;;13.30;96.30;;;;;;4976775;28;20183;-75
2021/09/02 06:38:37;;;;;;;45.20;20.50;;;13.20;96.30;;;;;;4976282;28;20253;-78
2021/09/02 06:41:03;;;;;;;39.90;17.90;;;13.30;96.30;;;;;;4975338;28;20213;-76
2021/09/02 06:43:28;;;;;;;86.23;16.70;;;13.50;96.30;;;;;;4974916;28;20319;-76
2021/09/02 06:45:54;;;;;;;41.33;17.10;;;13.50;96.30;;;;;;4975167;28;20173;-76
2021/09/02 06:48:19;;;;;;;47.87;20.97;;;13.50;96.30;;;;;;4984709;28;20185;-78
2021/09/02 06:50:45;;;;;;;46.20;22.20;;;13.50;96.30;;;;;;4971836;28;20185;-78
2021/09/02 06:53:10;;;;;;;41.47;21.57;;;13.40;96.30;;;;;;4983226;28;20182;-79
2021/09/02 06:55:36;;;;;;;41.13;21.30;;;13.50;96.30;;;;;;4989443;28;20237;-78
2021/09/02 06:58:01;;;;;;;42.40;21.83;;;13.70;96.30;;;;;;4971862;28;20645;-79
2021/09/02 07:00:27;;;;;;;40.73;19.37;;;13.80;96.30;;;;;;4967446;28;20205;-78
2021/09/02 07:02:52;;;;;;;39.00;22.60;;;14.00;96.30;;;;;;4981046;28;20579;-78
2021/09/02 07:05:18;;;;;;;31.93;21.17;;;14.10;96.30;;;;;;4987882;28;20184;-78
2021/09/02 07:07:44;;;;;;;35.53;22.70;;;14.30;96.30;;;;;;4970780;28;20249;-78
2021/09/02 07:10:10;;;;;;;37.20;22.60;;;14.50;96.30;;;;;;4966641;28;20188;-78
2021/09/02 07:12:35;;;;;;;30.73;20.93;;;14.60;96.30;;;;;;4976993;28;20425;-78
2021/09/02 07:15:01;;;;;;;35.73;22.90;;;14.60;96.30;;;;;;4987767;28;20235;-78
2021/09/02 07:17:27;;;;;;;36.23;21.77;;;14.70;96.30;;;;;;4986733;28;20265;-78
2021/09/02 07:19:52;;;;;;;28.47;19.70;;;14.70;96.30;;;;;;4978422;28;20177;-79
2021/09/02 07:22:18;;;;;;;35.17;20.83;;;14.80;96.30;;;;;;4970106;28;20194;-79
2021/09/02 07:24:43;;;;;;;32.70;20.80;;;14.80;96.30;;;;;;4973604;28;20182;-79
2021/09/02 07:27:09;;;;;;;31.27;19.83;;;14.80;96.30;;;;;;5007379;28;20185;-78
2021/09/02 07:29:34;;;;;;;29.93;19.30;;;14.90;96.30;;;;;;4991759;28;20197;-82
2021/09/02 07:32:00;;;;;;;31.53;19.93;;;15.50;96.30;;;;;;4993658;28;20201;-79
2021/09/02 07:34:25;;;;;;;29.77;20.20;;;15.90;96.30;;;;;;4978022;28;20181;-77
2021/09/02 07:36:51;;;;;;;30.23;19.07;;;16.00;96.30;;;;;;4996178;28;20177;-77
2021/09/02 07:39:16;;;;;;;27.27;19.23;;;16.20;96.30;;;;;;4988757;28;20694;-76
2021/09/02 07:41:43;;;;;;;26.50;18.67;;;16.40;96.30;;;;;;4988482;28;20742;-76
2021/09/02 07:44:09;;;;;;;22.03;17.23;;;16.50;96.30;;;;;;4984622;28;20990;-77
2021/09/02 07:46:35;;;;;;;26.70;18.57;;;16.50;96.30;;;;;;4994186;28;20422;-77
2021/09/02 07:49:00;;;;;;;21.80;16.70;;;16.60;96.30;;;;;;4991482;28;20181;-77
2021/09/02 07:51:26;;;;;;;27.50;16.33;;;16.70;96.30;;;;;;4975068;28;20201;-77
2021/09/02 07:53:51;;;;;;;23.00;17.20;;;16.60;96.30;;;;;;4990301;28;20181;-77
2021/09/02 07:56:17;;;;;;;19.63;17.17;;;16.70;96.30;;;;;;4991520;28;20658;-77
2021/09/02 07:58:42;;;;;;;26.83;20.00;;;16.50;96.30;;;;;;4991143;28;20253;-77
2021/09/02 08:01:13;;;;;;;29.80;21.93;;;16.40;96.30;;;;;;4973766;28;20271;-78
2021/09/02 08:03:40;;;;;;;26.23;18.87;;;16.10;96.30;;;;;;4990007;28;20171;-77
2021/09/02 08:06:05;;;;;;;30.40;21.90;;;15.80;96.30;;;;;;4977607;28;20437;-76
2021/09/02 08:08:31;;;;;;;26.60;21.00;;;15.60;96.30;;;;;;4978449;28;20923;-77
2021/09/02 08:10:57;;;;;;;23.10;19.47;;;15.40;96.30;;;;;;4972034;28;20209;-79
2021/09/02 08:13:22;;;;;;;31.37;20.20;;;15.20;96.30;;;;;;4976339;28;20187;-78
2021/09/02 08:15:48;;;;;;;30.03;23.47;;;15.00;96.30;;;;;;4959031;28;20593;-80
2021/09/02 08:18:14;;;;;;;29.90;21.97;;;15.00;96.30;;;;;;4976245;28;20178;-78
2021/09/02 08:20:39;;;;;;;29.13;21.70;;;15.10;96.30;;;;;;4962795;28;20583;-78
2021/09/02 08:23:05;;;;;;;26.33;22.17;;;15.30;96.30;;;;;;4994143;28;20638;-79
2021/09/02 08:25:31;;;;;;;32.63;23.93;;;15.40;96.30;;;;;;4996014;28;20185;-80
2021/09/02 08:27:57;;;;;;;31.83;22.20;;;15.30;96.30;;;;;;4980033;28;20224;-79
2021/09/02 08:30:26;;;;;;;30.40;23.33;;;15.10;96.30;;;;;;4996817;28;20413;-79
2021/09/02 08:32:51;;;;;;;35.23;23.67;;;15.20;96.30;;;;;;4989002;28;20660;-79
2021/09/02 08:35:22;;;;;;;33.57;22.30;;;15.20;96.30;;;;;;4995300;28;20417;-78
2021/09/02 08:37:49;;;;;;;37.70;24.20;;;15.30;96.30;;;;;;4976584;28;20166;-78
2021/09/02 08:40:20;;;;;;;34.47;24.40;;;15.10;96.30;;;;;;4980461;28;20976;-78
2021/09/02 08:42:46;;;;;;;34.10;23.83;;;15.10;96.30;;;;;;4990553;28;20422;-79
2021/09/02 08:45:12;;;;;;;35.60;22.27;;;15.30;96.30;;;;;;4988913;28;20555;-79
2021/09/02 08:47:38;;;;;;;32.93;22.90;;;15.30;96.30;;;;;;4977108;28;20460;-81
2021/09/02 08:50:05;;;;;;;33.00;23.70;;;15.90;96.30;;;;;;4977955;28;20781;-80
2021/09/02 08:52:31;;;;;;;29.43;22.97;;;16.60;96.30;;;;;;4978466;28;20472;-80
2021/09/02 08:54:57;;;;;;;35.90;22.30;;;17.20;96.30;;;;;;4966491;28;20421;-80
2021/09/02 08:57:24;;;;;;;26.77;20.17;;;18.00;96.30;;;;;;4997929;28;20177;-80
2021/09/02 08:59:49;;;;;;;29.87;19.10;;;17.50;96.30;;;;;;4974130;28;20488;-78
2021/09/02 09:02:24;;;;;;;27.50;19.77;;;17.60;96.30;;;;;;4984550;28;20458;-80
2021/09/02 09:05:07;;;;;;;31.80;18.60;;;17.60;96.30;;;;;;4978069;28;20269;-80
2021/09/02 09:07:37;;;;;;;27.67;18.83;;;18.00;96.30;;;;;;4977601;28;20912;-79
2021/09/02 09:10:29;;;;;;;27.97;20.10;;;18.10;96.30;;;;;;4977743;28;20508;-80
2021/09/02 09:13:00;;;;;;;30.80;18.00;;;18.20;96.30;;;;;;4975886;28;20453;-80
2021/09/02 09:15:34;;;;;;;28.20;18.30;;;18.20;96.30;;;;;;4965101;28;20447;-79
2021/09/02 09:18:24;;;;;;;24.87;18.67;;;18.40;96.30;;;;;;4988661;28;20425;-80
2021/09/02 09:21:24;;;;;;;25.57;19.47;;;18.10;96.30;;;;;;4984089;28;20470;-80
2021/09/02 09:24:06;;;;;;;20.57;17.77;;;17.60;96.30;;;;;;4984176;28;20427;-80
2021/09/02 09:26:34;;;;;;;20.30;16.07;;;17.70;96.30;;;;;;4981438;28;20511;-80
2021/09/02 09:29:15;;;;;;;22.40;16.57;;;18.20;96.30;;;;;;4989152;28;20940;-80
2021/09/02 09:31:41;;;;;;;19.27;15.83;;;18.60;96.30;;;;;;4975132;28;20439;-80
2021/09/02 09:34:07;;;;;;;27.40;17.87;;;18.70;96.30;;;;;;4990000;28;20425;-80
2021/09/02 09:36:35;;;;;;;24.20;16.00;;;18.70;96.30;;;;;;4964982;28;20599;-80
2021/09/02 09:39:10;;;;;;;22.67;17.27;;;18.30;96.30;;;;;;4975228;28;20221;-81
2021/09/02 09:41:41;;;;;;;24.40;18.03;;;18.90;96.30;;;;;;4993016;28;20491;-82
2021/09/02 09:44:21;;;;;;;29.93;19.80;;;19.90;96.30;;;;;;4992195;28;20452;-81
2021/09/02 09:47:06;;;;;;;21.83;17.93;;;19.90;96.30;;;;;;4991848;28;20417;-81
2021/09/02 09:49:56;;;;;;;25.80;16.87;;;19.70;96.30;;;;;;4991822;28;20405;-81
2021/09/02 09:52:26;;;;;;;23.33;16.13;;;19.40;96.30;;;;;;4988996;28;20436;-81
2021/09/02 09:54:59;;;;;;;20.80;15.57;;;19.60;96.30;;;;;;4990037;28;20419;-80
2021/09/02 09:57:28;;;;;;;21.10;16.00;;;20.40;96.30;;;;;;4994295;28;20416;-80
2021/09/02 09:59:54;;;;;;;20.37;15.77;;;20.60;96.30;;;;;;4981235;28;20449;-78
2021/09/02 10:02:20;;;;;;;22.60;15.43;;;21.00;96.30;;;;;;4984723;28;20460;-80
2021/09/02 10:04:47;;;;;;;21.93;16.03;;;21.70;96.30;;;;;;4988197;28;20413;-80
2021/09/02 10:07:16;;;;;;;24.27;15.77;;;22.10;96.30;;;;;;4993462;28;20413;-80
2021/09/02 10:09:42;;;;;;;20.20;15.40;;;22.80;96.30;;;;;;4987854;28;20410;-80
2021/09/02 10:12:07;;;;;;;22.43;16.40;;;23.60;96.30;;;;;;4989531;28;20440;-80
2021/09/02 10:14:33;;;;;;;24.73;14.70;;;21.70;96.30;;;;;;4991866;28;20173;-80
2021/09/02 10:17:00;;;;;;;20.10;14.13;;;21.70;96.30;;;;;;4976707;28;20285;-80
2021/09/02 10:19:27;;;;;;;17.07;12.87;;;22.40;96.30;;;;;;4989784;28;20173;-80
2021/09/02 10:21:56;;;;;;;17.40;13.70;;;23.20;96.30;;;;;;4991446;28;20539;-80
2021/09/02 10:24:35;;;;;;;15.83;12.47;;;22.30;96.30;;;;;;5025541;23;21068;-75
2021/09/02 10:27:16;;;;;;;16.60;12.93;;;22.50;96.30;;;;;;5007308;28;20518;-75
2021/09/02 10:29:42;;;;;;;14.97;12.00;;;23.20;96.30;;;;;;5003822;28;20409;-75
2021/09/02 10:32:23;;;;;;;15.80;12.47;;;23.30;96.30;;;;;;4996919;28;20424;-75
2021/09/02 10:35:15;;;;;;;15.50;12.30;;;22.60;96.30;;;;;;4984258;28;20196;-76
2021/09/02 10:37:43;;;;;;;16.77;12.00;;;22.80;96.30;;;;;;4966384;28;20425;-76
2021/09/02 10:40:32;;;;;;;13.83;12.30;;;23.10;96.30;;;;;;4999990;28;20923;-75
2021/09/02 10:42:57;;;;;;;15.87;11.20;;;22.40;96.00;;;;;;4989950;28;20428;-75
2021/09/02 10:45:26;;;;;;;14.00;10.27;;;21.80;96.30;;;;;;5012105;28;20423;-76
2021/09/02 10:47:52;;;;;;;14.00;11.53;;;22.10;96.30;;;;;;4999890;28;20297;-74
2021/09/02 10:50:23;;;;;;;13.60;11.20;;;21.00;96.30;;;;;;4996695;28;20946;-74
2021/09/02 10:52:49;;;;;;;15.57;11.30;;;22.10;96.30;;;;;;4991258;28;20409;-76
2021/09/02 10:55:33;;;;;;;16.70;11.40;;;22.30;96.20;;;;;;4999645;28;20419;-76
2021/09/02 10:58:01;;;;;;;16.53;10.57;;;22.20;96.30;;;;;;5006698;28;20431;-76
2021/09/02 11:00:40;;;;;;;14.13;9.47;;;22.30;96.30;;;;;;4999924;28;21050;-76
2021/09/02 11:03:13;;;;;;;12.23;9.67;;;21.40;96.30;;;;;;5004476;28;20521;-76
2021/09/02 11:06:03;;;;;;;10.73;8.63;;;21.60;96.30;;;;;;4993523;28;20412;-76
2021/09/02 11:08:33;;;;;;;12.60;9.00;;;22.20;96.30;;;;;;5008151;28;20985;-76
2021/09/02 11:11:28;;;;;;;12.37;9.60;;;22.30;96.30;;;;;;5009500;28;20423;-76
2021/09/02 11:13:54;;;;;;;15.20;9.57;;;22.90;93.60;;;;;;4980866;28;20444;-76
2021/09/02 11:16:23;;;;;;;13.00;9.53;;;23.50;96.30;;;;;;4998507;28;20448;-76
2021/09/02 11:18:56;;;;;;;14.80;9.73;;;23.80;96.30;;;;;;4996763;28;20923;-75
2021/09/02 11:21:28;;;;;;;12.07;9.27;;;24.30;92.30;;;;;;5001833;28;20471;-75
2021/09/02 11:24:05;;;;;;;11.30;8.50;;;23.90;93.20;;;;;;4995910;28;20456;-75
2021/09/02 11:26:34;;;;;;;13.60;9.00;;;23.50;93.50;;;;;;5010084;28;20498;-75
2021/09/02 11:29:01;;;;;;;8.93;7.47;;;23.30;93.40;;;;;;5015431;28;20403;-75
2021/09/02 11:31:27;;;;;;;10.90;8.13;;;22.20;96.30;;;;;;5015029;28;20925;-75
2021/09/02 11:33:53;;;;;;;11.83;9.00;;;21.70;96.30;;;;;;5012290;28;20439;-75
2021/09/02 11:36:21;;;;;;;13.17;8.77;;;21.60;96.30;;;;;;4997962;28;20420;-76
2021/09/02 11:38:48;;;;;;;9.03;8.10;;;21.90;96.10;;;;;;4995819;28;20177;-75
2021/09/02 11:41:20;;;;;;;12.80;8.73;;;22.00;94.10;;;;;;4995096;28;20451;-75
2021/09/02 11:43:47;;;;;;;9.27;8.00;;;21.70;95.70;;;;;;4995766;28;20432;-75
2021/09/02 11:46:12;;;;;;;12.03;8.87;;;22.00;94.80;;;;;;5006438;28;20423;-75
2021/09/02 11:49:04;;;;;;;9.23;7.57;;;22.80;96.30;;;;;;5009993;28;20424;-76
2021/09/02 11:51:31;;;;;;;12.80;7.43;;;23.90;96.30;;;;;;5007251;28;20193;-76
2021/09/02 11:54:09;;;;;;;15.30;6.83;;;24.60;93.30;;;;;;5014857;28;20434;-76
2021/09/02 11:56:36;;;;;;;12.80;7.83;;;24.60;87.00;;;;;;5014743;28;20422;-75
2021/09/02 11:59:04;;;;;;;9.37;7.37;;;24.50;89.10;;;;;;4997597;28;20420;-76
2021/09/02 12:01:30;;;;;;;11.73;6.93;;;24.40;94.30;;;;;;5014398;28;20458;-75
2021/09/02 12:03:56;;;;;;;8.53;7.37;;;24.30;91.80;;;;;;5014813;28;20935;-76
2021/09/02 12:06:23;;;;;;;9.47;6.70;;;24.00;88.70;;;;;;5014589;28;20176;-75
2021/09/02 12:08:49;;;;;;;7.60;6.80;;;23.30;89.60;;;;;;5015055;28;20172;-75
2021/09/02 12:11:20;;;;;;;9.63;7.10;;;23.20;93.50;;;;;;5014284;28;20555;-75
2021/09/02 12:13:46;;;;;;;7.63;6.90;;;23.70;94.60;;;;;;5012074;28;20204;-77
2021/09/02 12:16:14;;;;;;;11.43;6.57;;;23.60;85.00;;;;;;5005606;28;20422;-76
2021/09/02 12:18:42;;;;;;;8.80;6.70;;;23.30;89.70;;;;;;5009759;28;20652;-76
2021/09/02 12:21:12;;;;;;;9.00;7.20;;;23.60;91.10;;;;;;5011375;28;20491;-75
2021/09/02 12:23:43;;;;;;;10.70;6.50;;;23.70;90.50;;;;;;5010986;28;20451;-75
2021/09/02 12:26:08;;;;;;;9.03;6.37;;;24.20;96.30;;;;;;5022387;28;20419;-76
2021/09/02 12:28:35;;;;;;;13.60;7.60;;;23.80;90.40;;;;;;5023920;28;20463;-76
2021/09/02 12:31:14;;;;;;;9.17;6.67;;;23.90;89.20;;;;;;5013077;28;20173;-75
2021/09/02 12:34:03;;;;;;;9.33;6.87;;;23.90;89.10;;;;;;4991006;28;20802;-75
2021/09/02 12:36:31;;;;;;;10.93;6.30;;;23.70;88.10;;;;;;5011469;28;20436;-76
2021/09/02 12:39:14;;;;;;;12.27;6.83;;;22.50;89.00;;;;;;5013667;28;20840;-74
2021/09/02 12:41:45;;;;;;;9.87;6.60;;;23.20;92.30;;;;;;5003971;28;20460;-75
2021/09/02 12:44:13;;;;;;;11.07;7.50;;;23.40;90.20;;;;;;4994171;28;20563;-75
2021/09/02 12:46:46;;;;;;;10.43;7.30;;;23.80;94.80;;;;;;4993488;28;20409;-75
2021/09/02 12:49:12;;;;;;;11.17;6.13;;;24.10;91.50;;;;;;4994450;28;20419;-75
2021/09/02 12:51:37;;;;;;;11.10;7.50;;;24.00;90.90;;;;;;4976991;28;20411;-76
2021/09/02 12:54:03;;;;;;;12.03;6.80;;;24.40;94.40;;;;;;5006968;28;20228;-75
2021/09/02 12:56:36;;;;;;;7.53;6.43;;;24.30;88.60;;;;;;5015530;28;20244;-76
2021/09/02 12:59:02;;;;;;;8.10;6.00;;;24.40;90.90;;;;;;5015484;28;20587;-76
2021/09/02 13:01:28;;;;;;;8.20;5.10;;;24.10;88.60;;;;;;5015071;28;20502;-76
2021/09/02 13:03:57;;;;;;;8.13;6.20;;;23.80;89.80;;;;;;5015904;28;20431;-76
2021/09/02 13:06:22;;;;;;;7.53;6.30;;;23.20;90.40;;;;;;5014502;28;20173;-77
2021/09/02 13:08:48;;;;;;;8.30;5.77;;;23.20;91.40;;;;;;5013742;28;20416;-76
2021/09/02 13:11:13;;;;;;;7.60;6.27;;;23.50;90.70;;;;;;5013249;28;20204;-76
2021/09/02 13:13:39;;;;;;;9.70;6.63;;;23.70;92.40;;;;;;5013276;28;20258;-77
2021/09/02 13:16:04;;;;;;;8.87;6.37;;;23.40;87.60;;;;;;4997744;28;20189;-77
2021/09/02 13:18:30;;;;;;;9.83;6.57;;;22.60;90.70;;;;;;4994133;28;20247;-77
2021/09/02 13:20:55;;;;;;;9.17;5.50;;;23.20;95.10;;;;;;5000328;28;20284;-77
2021/09/02 13:23:21;;;;;;;10.90;5.83;;;23.50;92.30;;;;;;5003465;28;20213;-76
2021/09/02 13:25:50;;;;;;;14.53;6.27;;;24.00;93.20;;;;;;5007570;28;20547;-77
2021/09/02 13:28:16;;;;;;;14.43;6.37;;;23.60;88.20;;;;;;5013601;28;20173;-77
2021/09/02 13:30:42;;;;;;;17.20;9.27;;;23.30;92.20;;;;;;5013323;28;20447;-76
2021/09/02 13:33:07;;;;;;;17.87;8.27;;;23.50;91.80;;;;;;5012740;28;20935;-76
2021/09/02 13:35:33;;;;;;;12.80;5.43;;;23.50;88.60;;;;;;5013532;28;20551;-76
2021/09/02 13:37:58;;;;;;;10.03;5.40;;;22.80;86.70;;;;;;5012903;28;20711;-76
2021/09/02 13:40:24;;;;;;;9.70;5.50;;;22.40;88.10;;;;;;5013138;28;20204;-75
2021/09/02 13:42:50;;;;;;;9.00;5.53;;;22.30;89.60;;;;;;5012261;28;20655;-75
2021/09/02 13:45:16;;;;;;;8.23;4.73;;;22.30;90.10;;;;;;5013007;28;20197;-75
2021/09/02 13:47:43;;;;;;;9.80;5.70;;;22.40;88.70;;;;;;5013227;28;20443;-76
2021/09/02 13:50:09;;;;;;;7.73;6.03;;;22.00;91.00;;;;;;5013358;28;20596;-76
2021/09/02 13:52:38;;;;;;;7.67;5.00;;;22.30;90.80;;;;;;5012504;28;20494;-76
2021/09/02 13:55:10;;;;;;;5.80;4.27;;;22.60;87.40;;;;;;5015747;28;20201;-76
2021/09/02 13:57:36;;;;;;;10.83;4.83;;;23.10;87.80;;;;;;5012722;28;20462;-76
2021/09/02 14:00:06;;;;;;;8.57;5.10;;;23.00;88.00;;;;;;5012622;28;20404;-76
2021/09/02 14:02:31;;;;;;;8.17;5.53;;;23.30;88.70;;;;;;5007929;28;20165;-77
2021/09/02 14:04:57;;;;;;;7.17;5.20;;;23.30;87.60;;;;;;4993078;28;20820;-76
2021/09/02 14:07:24;;;;;;;7.73;5.70;;;23.40;91.40;;;;;;5004781;28;20184;-75
2021/09/02 14:09:49;;;;;;;6.10;4.80;;;23.40;95.00;;;;;;5012805;28;20197;-76
2021/09/02 14:12:15;;;;;;;8.87;5.80;;;23.30;91.50;;;;;;4992445;28;20890;-76
2021/09/02 14:14:40;;;;;;;7.17;5.03;;;23.30;90.90;;;;;;4993231;28;20212;-77
2021/09/02 14:17:06;;;;;;;7.47;5.40;;;23.10;90.10;;;;;;4992561;28;20297;-76
2021/09/02 14:19:31;;;;;;;6.57;5.50;;;22.60;95.00;;;;;;4993006;28;20533;-76
2021/09/02 14:21:57;;;;;;;6.80;5.40;;;23.00;90.00;;;;;;4992209;28;20197;-76
2021/09/02 14:24:22;;;;;;;9.73;5.10;;;23.30;93.50;;;;;;4992880;28;20212;-75
2021/09/02 14:26:48;;;;;;;9.27;5.60;;;23.50;93.40;;;;;;5020920;28;20175;-76
2021/09/02 14:29:13;;;;;;;18.90;10.10;;;23.90;90.30;;;;;;5046871;28;20180;-76
2021/09/02 14:31:39;;;;;;;5.77;4.67;;;23.70;86.70;;;;;;5043672;28;20771;-76
2021/09/02 14:34:04;;;;;;;7.07;4.90;;;23.60;87.90;;;;;;5050395;28;20267;-76
2021/09/02 14:36:30;;;;;;;10.93;4.90;;;23.50;88.60;;;;;;5050106;28;20183;-76
2021/09/02 14:38:55;;;;;;;5.37;4.80;;;23.50;89.60;;;;;;5058104;28;20161;-76
2021/09/02 14:41:21;;;;;;;5.73;4.40;;;23.60;91.90;;;;;;5056400;28;20216;-74
2021/09/02 14:43:46;;;;;;;5.80;4.90;;;24.00;86.60;;;;;;5013373;28;20201;-75
2021/09/02 14:46:11;;;;;;;7.10;4.60;;;24.30;87.00;;;;;;4992873;28;20189;-75
2021/09/02 14:48:37;;;;;;;9.50;4.27;;;24.50;86.90;;;;;;4992606;28;20208;-75
2021/09/02 14:51:02;;;;;;;5.67;4.50;;;24.60;84.80;;;;;;4992150;28;20258;-75
2021/09/02 14:53:28;;;;;;;5.90;4.30;;;24.60;86.20;;;;;;4992608;28;20204;-75
2021/09/02 14:55:53;;;;;;;6.77;4.60;;;24.30;85.30;;;;;;4992631;28;20629;-75
2021/09/02 14:58:19;;;;;;;7.97;5.30;;;24.10;86.30;;;;;;4992975;28;20233;-75
2021/09/02 15:00:44;;;;;;;6.40;5.03;;;23.70;85.50;;;;;;4992524;28;20197;-76
2021/09/02 15:03:10;;;;;;;4.70;4.17;;;23.40;87.50;;;;;;4991914;28;20197;-76
2021/09/02 15:05:35;;;;;;;5.03;4.30;;;23.50;87.60;;;;;;5011459;28;20188;-76
2021/09/02 15:08:01;;;;;;;5.60;4.80;;;23.70;89.60;;;;;;5024017;28;20238;-76
2021/09/02 15:10:26;;;;;;;5.50;3.93;;;23.60;87.20;;;;;;5031914;28;20172;-75
2021/09/02 15:12:52;;;;;;;6.73;4.40;;;22.90;87.00;;;;;;5031526;28;20199;-75
2021/09/02 15:15:17;;;;;;;6.10;4.20;;;22.70;88.90;;;;;;5031957;28;20200;-75
2021/09/02 15:17:43;;;;;;;6.17;5.07;;;22.40;91.00;;;;;;5031962;28;20660;-76
2021/09/02 15:20:10;;;;;;;7.80;4.17;;;22.20;89.80;;;;;;5031720;28;20227;-75
2021/09/02 15:22:35;;;;;;;6.70;4.60;;;22.30;91.70;;;;;;5030808;28;20439;-76
2021/09/02 15:25:01;;;;;;;6.73;4.50;;;22.50;90.50;;;;;;5031467;28;20486;-76
2021/09/02 15:27:27;;;;;;;6.00;3.67;;;22.70;88.70;;;;;;5012186;28;20228;-75
2021/09/02 15:29:52;;;;;;;4.70;4.00;;;22.80;90.00;;;;;;5026304;28;20290;-74
2021/09/02 15:32:19;;;;;;;5.17;4.63;;;22.70;90.10;;;;;;5026524;28;20680;-74
2021/09/02 15:34:45;;;;;;;5.00;4.07;;;22.30;90.90;;;;;;5008540;28;20212;-76
2021/09/02 15:37:10;;;;;;;9.50;4.73;;;22.10;91.70;;;;;;5011522;28;20415;-75
2021/09/02 15:39:36;;;;;;;5.97;4.30;;;21.80;91.80;;;;;;4994375;28;20636;-75
2021/09/02 15:42:02;;;;;;;8.00;4.20;;;21.90;92.10;;;;;;5011300;28;20281;-76
2021/09/02 15:44:27;;;;;;;5.87;3.77;;;22.00;92.80;;;;;;5003207;28;20208;-75
2021/09/02 15:46:53;;;;;;;11.00;5.57;;;21.90;93.60;;;;;;4992047;28;20584;-75
2021/09/02 15:49:19;;;;;;;5.30;4.37;;;21.70;92.30;;;;;;4992186;28;20264;-75
2021/09/02 15:51:45;;;;;;;4.80;4.30;;;21.70;94.50;;;;;;5011161;28;20176;-76
2021/09/02 15:54:11;;;;;;;9.40;3.87;;;21.60;94.30;;;;;;5011910;28;20428;-75
2021/09/02 15:56:36;;;;;;;6.83;4.00;;;21.40;91.60;;;;;;4996716;28;20919;-75
2021/09/02 15:59:02;;;;;;;4.93;4.07;;;21.40;95.00;;;;;;5015161;28;20173;-75
2021/09/02 16:01:27;;;;;;;7.57;4.50;;;21.50;95.80;;;;;;4995709;28;20565;-75
2021/09/02 16:03:53;;;;;;;5.37;3.47;;;21.50;94.50;;;;;;4997834;28;20673;-79
2021/09/02 16:06:18;;;;;;;5.83;3.97;;;21.40;94.70;;;;;;4994991;28;20169;-75
2021/09/02 16:08:44;;;;;;;4.50;4.00;;;21.20;95.10;;;;;;4995529;28;20315;-75
2021/09/02 16:11:09;;;;;;;6.53;3.60;;;21.10;95.50;;;;;;4996493;28;20657;-76
2021/09/02 16:13:35;;;;;;;4.37;3.70;;;21.00;95.20;;;;;;4995914;28;20200;-75
2021/09/02 16:16:01;;;;;;;24.43;4.80;;;21.00;96.00;;;;;;4995144;28;20178;-76
2021/09/02 16:18:27;;;;;;;4.30;3.30;;;20.90;96.30;;;;;;4994288;28;20196;-76
2021/09/02 16:20:53;;;;;;;7.83;4.17;;;20.80;96.30;;;;;;4995114;28;20205;-76
2021/09/02 16:23:19;;;;;;;8.20;4.63;;;20.80;96.30;;;;;;5017786;23;20452;-77
2021/09/02 16:25:45;;;;;;;4.83;3.83;;;20.90;96.30;;;;;;5008261;28;20445;-78
2021/09/02 16:28:11;;;;;;;5.20;4.37;;;20.90;96.30;;;;;;5030025;28;20259;-78
2021/09/02 16:30:37;;;;;;;5.80;4.40;;;20.90;96.30;;;;;;5017546;28;20670;-78
2021/09/02 16:33:04;;;;;;;7.00;3.90;;;20.90;96.30;;;;;;5039795;28;20415;-78
2021/09/02 16:35:30;;;;;;;6.40;3.80;;;20.90;96.30;;;;;;5034542;28;20192;-78
2021/09/02 16:38:01;;;;;;;6.53;4.30;;;20.80;96.30;;;;;;5034416;28;20426;-79